Navin Harrier — V7LK4 — position and weather

sailwx.info

Track history (hours):
 
Tides and Currents Weather Stations Pressure Air Temp Water Temp Dewpoint Dewpoint Depression Visibility Wind Speed Wind Dir Waves Ship Positions

Navin Harrier

Last reported at 2017-Nov-24 23:59 UTC. Time now 2017-Nov-25 00:08 UTC.
Position N 36°17' W 007°21'.

Length 113 m; draft 4.4 m.

Type: Ship (hazmat cat B). MMSI: 538090483.

Date/timePositionNaut miles runAvg speedWind from/ knotsBaromVisibWave heightAir tempDewpointWater temp
2017-Nov-24 23:59N 36°17' W 007°21'510.4
2017-Nov-24 23:30N 36°15' W 007°15'810.5
2017-Nov-24 22:42N 36°13' W 007°05'3310.7
2017-Nov-24 19:39N 36°02' W 006°27'510.8
2017-Nov-24 19:09N 36°01' W 006°20'210.8
2017-Nov-24 18:58N 36°00' W 006°18'510.7
2017-Nov-24 18:30N 35°59' W 006°12'810.6
2017-Nov-24 17:47N 35°58' W 006°03'310.6
2017-Nov-24 17:30N 35°58' W 005°59'1711.1
2017-Nov-24 15:56N 35°58' W 005°38'510.9
2017-Nov-24 15:30N 35°59' W 005°32'10 9.9
2017-Nov-24 14:29N 36°02' W 005°20'5 9.4
2017-Nov-24 14:00N 36°03' W 005°15'18810.7
2017-Nov-23 20:31N 36°54' W 001°30'011.1
2017-Nov-23 20:30N 36°54' W 001°30'511.0
2017-Nov-23 20:00N 36°58' W 001°25'611.0
2017-Nov-23 19:30N 37°02' W 001°20'611.0
2017-Nov-23 18:57N 37°06' W 001°14'510.8
2017-Nov-23 18:29N 37°09' W 001°09'510.7
2017-Nov-23 18:00N 37°13' W 001°05'510.5
2017-Nov-23 17:30N 37°16' W 000°60'510.4
2017-Nov-23 16:58N 37°20' W 000°54'610.6
2017-Nov-23 16:27N 37°23' W 000°49'510.6
2017-Nov-23 16:00N 37°26' W 000°45'510.4
2017-Nov-23 15:29N 37°30' W 000°39'510.2
2017-Nov-23 15:00N 37°33' W 000°35'510.3
2017-Nov-23 14:30N 37°37' W 000°31'510.4
2017-Nov-23 14:00N 37°42' W 000°27'510.3
2017-Nov-23 13:28N 37°46' W 000°24'510.3
2017-Nov-23 13:00N 37°50' W 000°20'510.4
2017-Nov-23 12:30N 37°55' W 000°17'510.4
2017-Nov-23 12:00N 37°59' W 000°13'510.2
2017-Nov-23 11:29N 38°03' W 000°10'5 9.9
2017-Nov-23 10:57N 38°08' W 000°06'810.0
2017-Nov-23 10:08N 38°15' W 000°00'110.0
2017-Nov-23 10:00N 38°16' E 000°01'3610.4
2017-Nov-23 06:31N 38°46' E 000°25'010.9
2017-Nov-23 06:30N 38°46' E 000°25'  
Track history (hours):
 
Tides and Currents Weather Stations Pressure Air Temp Water Temp Dewpoint Dewpoint Depression Visibility Wind Speed Wind Dir Waves Ship Positions

Navin Harrier

Last reported at 2017-Nov-24 23:59 UTC. Time now 2017-Nov-25 00:08 UTC.
Position N 36°17' W 007°21'.

Length 113 m; draft 4.4 m.

Type: Ship (hazmat cat B). MMSI: 538090483.

Date/timePositionNaut miles runAvg speedWind from/ knotsBaromVisibWave heightAir tempDewpointWater temp
2017-Nov-24 23:59N 36°17' W 007°21'510.4
2017-Nov-24 23:30N 36°15' W 007°15'810.5
2017-Nov-24 22:42N 36°13' W 007°05'3310.7
2017-Nov-24 19:39N 36°02' W 006°27'510.8
2017-Nov-24 19:09N 36°01' W 006°20'210.8
2017-Nov-24 18:58N 36°00' W 006°18'510.7
2017-Nov-24 18:30N 35°59' W 006°12'810.6
2017-Nov-24 17:47N 35°58' W 006°03'310.6
2017-Nov-24 17:30N 35°58' W 005°59'1711.1
2017-Nov-24 15:56N 35°58' W 005°38'510.9
2017-Nov-24 15:30N 35°59' W 005°32'10 9.9
2017-Nov-24 14:29N 36°02' W 005°20'5 9.4
2017-Nov-24 14:00N 36°03' W 005°15'18810.7
2017-Nov-23 20:31N 36°54' W 001°30'011.1
2017-Nov-23 20:30N 36°54' W 001°30'511.0
2017-Nov-23 20:00N 36°58' W 001°25'611.0
2017-Nov-23 19:30N 37°02' W 001°20'611.0
2017-Nov-23 18:57N 37°06' W 001°14'510.8
2017-Nov-23 18:29N 37°09' W 001°09'510.7
2017-Nov-23 18:00N 37°13' W 001°05'510.5
2017-Nov-23 17:30N 37°16' W 000°60'510.4
2017-Nov-23 16:58N 37°20' W 000°54'610.6
2017-Nov-23 16:27N 37°23' W 000°49'510.6
2017-Nov-23 16:00N 37°26' W 000°45'510.4
2017-Nov-23 15:29N 37°30' W 000°39'510.2
2017-Nov-23 15:00N 37°33' W 000°35'510.3
2017-Nov-23 14:30N 37°37' W 000°31'510.4
2017-Nov-23 14:00N 37°42' W 000°27'510.3
2017-Nov-23 13:28N 37°46' W 000°24'510.3
2017-Nov-23 13:00N 37°50' W 000°20'510.4
2017-Nov-23 12:30N 37°55' W 000°17'510.4
2017-Nov-23 12:00N 37°59' W 000°13'510.2
2017-Nov-23 11:29N 38°03' W 000°10'5 9.9
2017-Nov-23 10:57N 38°08' W 000°06'810.0
2017-Nov-23 10:08N 38°15' W 000°00'110.0
2017-Nov-23 10:00N 38°16' E 000°01'3610.4
2017-Nov-23 06:31N 38°46' E 000°25'010.9
2017-Nov-23 06:30N 38°46' E 000°25'  

Dump ship's entire track history